sensor_id;sensor_type;location;lat;lon;timestamp;temperature;humidity
8408;DHT22;4241;48.452;9.216;2023-12-22T00:01:12;6.10;99.90
8408;DHT22;4241;48.452;9.216;2023-12-22T00:03:41;6.10;99.90
8408;DHT22;4241;48.452;9.216;2023-12-22T00:06:09;6.10;99.90
8408;DHT22;4241;48.452;9.216;2023-12-22T00:08:37;6.40;99.90
8408;DHT22;4241;48.452;9.216;2023-12-22T00:11:04;6.30;99.90
8408;DHT22;4241;48.452;9.216;2023-12-22T00:13:30;7.10;99.90
8408;DHT22;4241;48.452;9.216;2023-12-22T00:15:58;6.50;99.90
8408;DHT22;4241;48.452;9.216;2023-12-22T00:18:25;6.40;99.90
8408;DHT22;4241;48.452;9.216;2023-12-22T00:20:52;6.40;99.90
8408;DHT22;4241;48.452;9.216;2023-12-22T00:23:20;6.40;99.90
8408;DHT22;4241;48.452;9.216;2023-12-22T00:25:47;6.10;99.90
8408;DHT22;4241;48.452;9.216;2023-12-22T00:28:14;6.40;99.90
8408;DHT22;4241;48.452;9.216;2023-12-22T00:30:41;6.60;99.90
8408;DHT22;4241;48.452;9.216;2023-12-22T00:33:07;6.40;99.90
8408;DHT22;4241;48.452;9.216;2023-12-22T00:35:34;6.40;99.90
8408;DHT22;4241;48.452;9.216;2023-12-22T00:38:02;6.30;99.90
8408;DHT22;4241;48.452;9.216;2023-12-22T00:40:30;6.20;99.90
8408;DHT22;4241;48.452;9.216;2023-12-22T00:42:57;6.40;99.90
8408;DHT22;4241;48.452;9.216;2023-12-22T00:45:24;6.30;99.90
8408;DHT22;4241;48.452;9.216;2023-12-22T00:47:50;6.80;99.90
8408;DHT22;4241;48.452;9.216;2023-12-22T00:50:17;6.40;99.90
8408;DHT22;4241;48.452;9.216;2023-12-22T00:52:44;6.40;99.90
8408;DHT22;4241;48.452;9.216;2023-12-22T00:55:11;6.40;99.90
8408;DHT22;4241;48.452;9.216;2023-12-22T00:57:39;6.80;99.90
8408;DHT22;4241;48.452;9.216;2023-12-22T01:00:07;6.40;99.90
8408;DHT22;4241;48.452;9.216;2023-12-22T01:02:36;6.20;99.90
8408;DHT22;4241;48.452;9.216;2023-12-22T01:05:03;6.80;99.90
8408;DHT22;4241;48.452;9.216;2023-12-22T01:07:30;6.10;99.90
8408;DHT22;4241;48.452;9.216;2023-12-22T01:09:57;6.80;99.90
8408;DHT22;4241;48.452;9.216;2023-12-22T01:12:26;6.40;99.90
8408;DHT22;4241;48.452;9.216;2023-12-22T01:14:55;6.60;99.90
8408;DHT22;4241;48.452;9.216;2023-12-22T01:17:22;6.60;99.90
8408;DHT22;4241;48.452;9.216;2023-12-22T01:19:49;6.80;99.90
8408;DHT22;4241;48.452;9.216;2023-12-22T01:22:16;6.70;99.90
8408;DHT22;4241;48.452;9.216;2023-12-22T01:24:43;6.60;99.90
8408;DHT22;4241;48.452;9.216;2023-12-22T01:27:10;6.60;99.90
8408;DHT22;4241;48.452;9.216;2023-12-22T01:29:37;6.50;99.90
8408;DHT22;4241;48.452;9.216;2023-12-22T01:32:06;6.50;99.90
8408;DHT22;4241;48.452;9.216;2023-12-22T01:34:33;6.30;99.90
8408;DHT22;4241;48.452;9.216;2023-12-22T01:37:00;6.30;99.90
8408;DHT22;4241;48.452;9.216;2023-12-22T01:39:26;6.20;99.90
8408;DHT22;4241;48.452;9.216;2023-12-22T01:41:53;6.20;99.90
8408;DHT22;4241;48.452;9.216;2023-12-22T01:44:20;6.30;99.90
8408;DHT22;4241;48.452;9.216;2023-12-22T01:46:47;5.80;99.90
8408;DHT22;4241;48.452;9.216;2023-12-22T01:49:15;6.10;99.90
8408;DHT22;4241;48.452;9.216;2023-12-22T01:51:42;6.10;99.90
8408;DHT22;4241;48.452;9.216;2023-12-22T01:54:10;5.80;99.90
8408;DHT22;4241;48.452;9.216;2023-12-22T01:56:37;6.00;99.90
8408;DHT22;4241;48.452;9.216;2023-12-22T01:59:04;6.20;99.90
8408;DHT22;4241;48.452;9.216;2023-12-22T02:01:31;5.80;99.90
8408;DHT22;4241;48.452;9.216;2023-12-22T02:03:59;5.60;99.90
8408;DHT22;4241;48.452;9.216;2023-12-22T02:06:29;5.50;99.90
8408;DHT22;4241;48.452;9.216;2023-12-22T02:08:57;5.40;99.90
8408;DHT22;4241;48.452;9.216;2023-12-22T02:11:24;5.40;99.90
8408;DHT22;4241;48.452;9.216;2023-12-22T02:13:51;5.40;99.90
8408;DHT22;4241;48.452;9.216;2023-12-22T02:16:22;5.60;99.90
8408;DHT22;4241;48.452;9.216;2023-12-22T02:18:55;3.70;99.90
8408;DHT22;4241;48.452;9.216;2023-12-22T02:21:22;5.70;99.90
8408;DHT22;4241;48.452;9.216;2023-12-22T02:23:50;5.80;99.90
8408;DHT22;4241;48.452;9.216;2023-12-22T02:26:22;5.60;99.90
8408;DHT22;4241;48.452;9.216;2023-12-22T02:28:51;6.30;99.90
8408;DHT22;4241;48.452;9.216;2023-12-22T02:31:25;5.70;99.90
8408;DHT22;4241;48.452;9.216;2023-12-22T02:33:55;5.80;99.90
8408;DHT22;4241;48.452;9.216;2023-12-22T02:36:26;5.90;99.90
8408;DHT22;4241;48.452;9.216;2023-12-22T02:38:55;6.20;99.90
8408;DHT22;4241;48.452;9.216;2023-12-22T02:41:22;5.80;99.90
8408;DHT22;4241;48.452;9.216;2023-12-22T02:43:50;6.40;99.90
8408;DHT22;4241;48.452;9.216;2023-12-22T02:46:17;6.00;99.90
8408;DHT22;4241;48.452;9.216;2023-12-22T02:48:44;5.80;99.90
8408;DHT22;4241;48.452;9.216;2023-12-22T02:51:10;6.00;99.90
8408;DHT22;4241;48.452;9.216;2023-12-22T02:53:37;5.90;99.90
8408;DHT22;4241;48.452;9.216;2023-12-22T02:56:06;6.00;99.90
8408;DHT22;4241;48.452;9.216;2023-12-22T02:58:33;5.80;99.90
8408;DHT22;4241;48.452;9.216;2023-12-22T03:01:00;6.20;99.90
8408;DHT22;4241;48.452;9.216;2023-12-22T03:03:26;5.90;99.90
8408;DHT22;4241;48.452;9.216;2023-12-22T03:05:53;6.20;99.90
8408;DHT22;4241;48.452;9.216;2023-12-22T03:08:20;6.10;99.90
8408;DHT22;4241;48.452;9.216;2023-12-22T03:10:47;6.20;99.90
8408;DHT22;4241;48.452;9.216;2023-12-22T03:13:15;6.70;99.90
8408;DHT22;4241;48.452;9.216;2023-12-22T03:15:42;6.20;99.90
8408;DHT22;4241;48.452;9.216;2023-12-22T03:18:09;7.70;99.90
8408;DHT22;4241;48.452;9.216;2023-12-22T03:20:35;6.10;99.90
8408;DHT22;4241;48.452;9.216;2023-12-22T03:23:03;6.00;99.90
8408;DHT22;4241;48.452;9.216;2023-12-22T03:25:30;6.10;99.90
8408;DHT22;4241;48.452;9.216;2023-12-22T03:27:57;6.00;99.90
8408;DHT22;4241;48.452;9.216;2023-12-22T03:30:25;5.90;99.90
8408;DHT22;4241;48.452;9.216;2023-12-22T03:32:52;5.70;99.90
8408;DHT22;4241;48.452;9.216;2023-12-22T03:35:19;5.70;99.90
8408;DHT22;4241;48.452;9.216;2023-12-22T03:37:46;5.70;99.90
8408;DHT22;4241;48.452;9.216;2023-12-22T03:40:12;5.80;99.90
8408;DHT22;4241;48.452;9.216;2023-12-22T03:42:39;5.70;99.90
8408;DHT22;4241;48.452;9.216;2023-12-22T03:45:07;5.70;99.90
8408;DHT22;4241;48.452;9.216;2023-12-22T03:47:35;5.60;99.90
8408;DHT22;4241;48.452;9.216;2023-12-22T03:50:02;5.80;99.90
8408;DHT22;4241;48.452;9.216;2023-12-22T03:52:29;5.70;99.90
8408;DHT22;4241;48.452;9.216;2023-12-22T03:54:55;6.20;99.90
8408;DHT22;4241;48.452;9.216;2023-12-22T03:57:22;5.80;99.90
8408;DHT22;4241;48.452;9.216;2023-12-22T03:59:49;5.80;99.90
8408;DHT22;4241;48.452;9.216;2023-12-22T04:02:16;5.80;99.90
8408;DHT22;4241;48.452;9.216;2023-12-22T04:04:44;5.90;99.90
8408;DHT22;4241;48.452;9.216;2023-12-22T04:07:11;6.20;99.90
8408;DHT22;4241;48.452;9.216;2023-12-22T04:09:37;6.00;99.90
8408;DHT22;4241;48.452;9.216;2023-12-22T04:12:05;5.90;99.90
8408;DHT22;4241;48.452;9.216;2023-12-22T04:14:32;5.80;99.90
8408;DHT22;4241;48.452;9.216;2023-12-22T04:16:59;5.90;99.90
8408;DHT22;4241;48.452;9.216;2023-12-22T04:19:25;5.90;99.90
8408;DHT22;4241;48.452;9.216;2023-12-22T04:21:54;5.80;99.90
8408;DHT22;4241;48.452;9.216;2023-12-22T04:24:20;6.10;99.90
8408;DHT22;4241;48.452;9.216;2023-12-22T04:26:47;6.20;99.90
8408;DHT22;4241;48.452;9.216;2023-12-22T04:29:14;5.90;99.90
8408;DHT22;4241;48.452;9.216;2023-12-22T04:31:41;5.90;99.90
8408;DHT22;4241;48.452;9.216;2023-12-22T04:34:08;5.90;99.90
8408;DHT22;4241;48.452;9.216;2023-12-22T04:36:35;6.10;99.90
8408;DHT22;4241;48.452;9.216;2023-12-22T04:39:03;5.90;99.90
8408;DHT22;4241;48.452;9.216;2023-12-22T04:41:30;6.40;99.90
8408;DHT22;4241;48.452;9.216;2023-12-22T04:43:57;6.10;99.90
8408;DHT22;4241;48.452;9.216;2023-12-22T04:46:28;6.00;99.90
8408;DHT22;4241;48.452;9.216;2023-12-22T04:48:55;6.00;99.90
8408;DHT22;4241;48.452;9.216;2023-12-22T04:51:22;6.10;99.90
8408;DHT22;4241;48.452;9.216;2023-12-22T04:53:48;6.00;99.90
8408;DHT22;4241;48.452;9.216;2023-12-22T04:56:17;6.00;99.90
8408;DHT22;4241;48.452;9.216;2023-12-22T04:58:43;6.40;99.90
8408;DHT22;4241;48.452;9.216;2023-12-22T05:01:10;6.30;99.90
8408;DHT22;4241;48.452;9.216;2023-12-22T05:03:37;6.00;99.90
8408;DHT22;4241;48.452;9.216;2023-12-22T05:06:04;6.10;99.90
8408;DHT22;4241;48.452;9.216;2023-12-22T05:08:31;5.90;99.90
8408;DHT22;4241;48.452;9.216;2023-12-22T05:10:57;3.80;99.90
8408;DHT22;4241;48.452;9.216;2023-12-22T05:13:26;5.80;99.90
8408;DHT22;4241;48.452;9.216;2023-12-22T05:15:52;5.90;99.90
8408;DHT22;4241;48.452;9.216;2023-12-22T05:18:20;5.80;99.90
8408;DHT22;4241;48.452;9.216;2023-12-22T05:20:47;5.90;99.90
8408;DHT22;4241;48.452;9.216;2023-12-22T05:23:15;5.80;99.90
8408;DHT22;4241;48.452;9.216;2023-12-22T05:25:41;6.20;99.90
8408;DHT22;4241;48.452;9.216;2023-12-22T05:28:08;6.30;99.90
8408;DHT22;4241;48.452;9.216;2023-12-22T05:30:36;5.90;99.90
8408;DHT22;4241;48.452;9.216;2023-12-22T05:33:04;5.90;99.90
8408;DHT22;4241;48.452;9.216;2023-12-22T05:35:30;5.80;99.90
8408;DHT22;4241;48.452;9.216;2023-12-22T05:37:57;6.10;99.90
8408;DHT22;4241;48.452;9.216;2023-12-22T05:40:24;6.00;99.90
8408;DHT22;4241;48.452;9.216;2023-12-22T05:42:51;6.10;99.90
8408;DHT22;4241;48.452;9.216;2023-12-22T05:45:17;6.20;99.90
8408;DHT22;4241;48.452;9.216;2023-12-22T05:47:46;6.00;99.90
8408;DHT22;4241;48.452;9.216;2023-12-22T05:50:13;6.20;99.90
8408;DHT22;4241;48.452;9.216;2023-12-22T05:52:40;6.30;99.90
8408;DHT22;4241;48.452;9.216;2023-12-22T05:55:07;6.10;99.90
8408;DHT22;4241;48.452;9.216;2023-12-22T05:57:34;6.20;99.90
8408;DHT22;4241;48.452;9.216;2023-12-22T06:00:01;6.30;99.90
8408;DHT22;4241;48.452;9.216;2023-12-22T06:02:30;6.70;99.90
8408;DHT22;4241;48.452;9.216;2023-12-22T06:04:58;6.30;99.90
8408;DHT22;4241;48.452;9.216;2023-12-22T06:07:25;6.40;99.90
8408;DHT22;4241;48.452;9.216;2023-12-22T06:09:52;6.50;99.90
8408;DHT22;4241;48.452;9.216;2023-12-22T06:12:19;6.30;99.90
8408;DHT22;4241;48.452;9.216;2023-12-22T06:14:46;6.50;99.90
8408;DHT22;4241;48.452;9.216;2023-12-22T06:17:12;6.90;99.90
8408;DHT22;4241;48.452;9.216;2023-12-22T06:19:39;6.50;99.90
8408;DHT22;4241;48.452;9.216;2023-12-22T06:22:07;6.50;99.90
8408;DHT22;4241;48.452;9.216;2023-12-22T06:24:34;6.70;99.90
8408;DHT22;4241;48.452;9.216;2023-12-22T06:27:01;7.00;99.90
8408;DHT22;4241;48.452;9.216;2023-12-22T06:29:28;6.60;99.90
8408;DHT22;4241;48.452;9.216;2023-12-22T06:31:56;6.70;99.90
8408;DHT22;4241;48.452;9.216;2023-12-22T06:34:23;6.50;99.90
8408;DHT22;4241;48.452;9.216;2023-12-22T06:36:51;6.30;99.90
8408;DHT22;4241;48.452;9.216;2023-12-22T06:39:19;6.40;99.90
8408;DHT22;4241;48.452;9.216;2023-12-22T06:41:46;6.50;99.90
8408;DHT22;4241;48.452;9.216;2023-12-22T06:44:13;6.30;99.90
8408;DHT22;4241;48.452;9.216;2023-12-22T06:46:40;6.60;99.90
8408;DHT22;4241;48.452;9.216;2023-12-22T06:49:07;5.10;99.90
8408;DHT22;4241;48.452;9.216;2023-12-22T06:51:34;6.20;99.90
8408;DHT22;4241;48.452;9.216;2023-12-22T06:54:02;6.20;99.90
8408;DHT22;4241;48.452;9.216;2023-12-22T06:56:33;6.00;99.90
8408;DHT22;4241;48.452;9.216;2023-12-22T06:59:00;6.50;99.90
8408;DHT22;4241;48.452;9.216;2023-12-22T07:01:28;6.60;99.90
8408;DHT22;4241;48.452;9.216;2023-12-22T07:03:55;6.30;99.90
8408;DHT22;4241;48.452;9.216;2023-12-22T07:06:24;6.30;99.90
8408;DHT22;4241;48.452;9.216;2023-12-22T07:09:27;6.40;99.90
8408;DHT22;4241;48.452;9.216;2023-12-22T07:11:55;6.20;99.90
8408;DHT22;4241;48.452;9.216;2023-12-22T07:14:22;6.60;99.90
8408;DHT22;4241;48.452;9.216;2023-12-22T07:16:49;6.40;99.90
8408;DHT22;4241;48.452;9.216;2023-12-22T07:19:16;6.40;99.90
8408;DHT22;4241;48.452;9.216;2023-12-22T07:21:43;6.60;99.90
8408;DHT22;4241;48.452;9.216;2023-12-22T07:24:09;6.10;99.90
8408;DHT22;4241;48.452;9.216;2023-12-22T07:26:36;6.10;99.90
8408;DHT22;4241;48.452;9.216;2023-12-22T07:29:04;6.90;99.90
8408;DHT22;4241;48.452;9.216;2023-12-22T07:31:31;6.60;99.90
8408;DHT22;4241;48.452;9.216;2023-12-22T07:33:58;6.50;99.90
8408;DHT22;4241;48.452;9.216;2023-12-22T07:36:24;6.70;99.90
8408;DHT22;4241;48.452;9.216;2023-12-22T07:38:51;6.40;99.90
8408;DHT22;4241;48.452;9.216;2023-12-22T07:41:18;6.80;99.90
8408;DHT22;4241;48.452;9.216;2023-12-22T07:43:45;6.50;99.90
8408;DHT22;4241;48.452;9.216;2023-12-22T07:46:18;6.40;99.90
8408;DHT22;4241;48.452;9.216;2023-12-22T07:48:44;6.80;99.90
8408;DHT22;4241;48.452;9.216;2023-12-22T07:51:11;6.60;99.90
8408;DHT22;4241;48.452;9.216;2023-12-22T07:53:38;6.40;99.90
8408;DHT22;4241;48.452;9.216;2023-12-22T07:56:05;6.50;99.90
8408;DHT22;4241;48.452;9.216;2023-12-22T07:58:33;6.40;99.90
8408;DHT22;4241;48.452;9.216;2023-12-22T08:01:00;6.30;99.90
8408;DHT22;4241;48.452;9.216;2023-12-22T08:03:28;6.50;99.90
8408;DHT22;4241;48.452;9.216;2023-12-22T08:05:55;6.40;99.90
8408;DHT22;4241;48.452;9.216;2023-12-22T08:08:22;6.40;99.90
8408;DHT22;4241;48.452;9.216;2023-12-22T08:10:49;6.30;99.90
8408;DHT22;4241;48.452;9.216;2023-12-22T08:13:16;6.70;99.90
8408;DHT22;4241;48.452;9.216;2023-12-22T08:15:43;6.20;99.90
8408;DHT22;4241;48.452;9.216;2023-12-22T08:18:10;6.40;99.90
8408;DHT22;4241;48.452;9.216;2023-12-22T08:20:38;6.80;99.90
8408;DHT22;4241;48.452;9.216;2023-12-22T08:23:05;6.40;99.90
8408;DHT22;4241;48.452;9.216;2023-12-22T08:25:32;6.40;99.90
8408;DHT22;4241;48.452;9.216;2023-12-22T08:27:59;6.40;99.90
8408;DHT22;4241;48.452;9.216;2023-12-22T08:30:26;6.40;99.90
8408;DHT22;4241;48.452;9.216;2023-12-22T08:32:53;6.30;99.90
8408;DHT22;4241;48.452;9.216;2023-12-22T08:35:20;6.40;99.90
8408;DHT22;4241;48.452;9.216;2023-12-22T08:37:48;6.40;99.90
8408;DHT22;4241;48.452;9.216;2023-12-22T08:40:15;6.40;99.90
8408;DHT22;4241;48.452;9.216;2023-12-22T08:42:42;6.50;99.90
8408;DHT22;4241;48.452;9.216;2023-12-22T08:45:09;6.50;99.90
8408;DHT22;4241;48.452;9.216;2023-12-22T08:47:36;6.30;99.90
8408;DHT22;4241;48.452;9.216;2023-12-22T08:50:03;6.30;99.90
8408;DHT22;4241;48.452;9.216;2023-12-22T08:52:33;6.40;99.90
8408;DHT22;4241;48.452;9.216;2023-12-22T08:55:02;6.50;99.90
8408;DHT22;4241;48.452;9.216;2023-12-22T08:57:29;6.60;99.90
8408;DHT22;4241;48.452;9.216;2023-12-22T08:59:56;6.30;99.90
8408;DHT22;4241;48.452;9.216;2023-12-22T09:02:23;6.10;99.90
8408;DHT22;4241;48.452;9.216;2023-12-22T09:04:51;6.60;99.90
8408;DHT22;4241;48.452;9.216;2023-12-22T09:07:18;6.60;99.90
8408;DHT22;4241;48.452;9.216;2023-12-22T09:09:46;6.30;99.90
8408;DHT22;4241;48.452;9.216;2023-12-22T09:12:14;6.30;99.90
8408;DHT22;4241;48.452;9.216;2023-12-22T09:14:41;6.40;99.90
8408;DHT22;4241;48.452;9.216;2023-12-22T09:17:08;6.50;99.90
8408;DHT22;4241;48.452;9.216;2023-12-22T09:19:35;5.90;99.90
8408;DHT22;4241;48.452;9.216;2023-12-22T09:22:04;6.10;99.90
8408;DHT22;4241;48.452;9.216;2023-12-22T09:24:31;6.20;99.90
8408;DHT22;4241;48.452;9.216;2023-12-22T09:26:57;6.70;99.90
8408;DHT22;4241;48.452;9.216;2023-12-22T09:29:30;6.50;99.90
8408;DHT22;4241;48.452;9.216;2023-12-22T09:31:57;6.90;99.90
8408;DHT22;4241;48.452;9.216;2023-12-22T09:34:26;6.20;99.90
8408;DHT22;4241;48.452;9.216;2023-12-22T09:36:53;6.20;99.90
8408;DHT22;4241;48.452;9.216;2023-12-22T09:39:20;6.50;99.90
8408;DHT22;4241;48.452;9.216;2023-12-22T09:41:48;6.20;99.90
8408;DHT22;4241;48.452;9.216;2023-12-22T09:44:18;6.10;99.90
8408;DHT22;4241;48.452;9.216;2023-12-22T09:46:48;6.50;99.90
8408;DHT22;4241;48.452;9.216;2023-12-22T09:49:16;6.60;99.90
8408;DHT22;4241;48.452;9.216;2023-12-22T09:51:44;6.30;99.90
8408;DHT22;4241;48.452;9.216;2023-12-22T09:54:12;6.20;99.90
8408;DHT22;4241;48.452;9.216;2023-12-22T09:56:40;6.20;99.90
8408;DHT22;4241;48.452;9.216;2023-12-22T09:59:10;6.20;99.90
8408;DHT22;4241;48.452;9.216;2023-12-22T10:01:40;6.10;99.90
8408;DHT22;4241;48.452;9.216;2023-12-22T10:04:10;6.20;99.90
8408;DHT22;4241;48.452;9.216;2023-12-22T10:06:37;6.60;99.90
8408;DHT22;4241;48.452;9.216;2023-12-22T10:09:05;6.70;99.90
8408;DHT22;4241;48.452;9.216;2023-12-22T10:11:34;6.10;99.90
8408;DHT22;4241;48.452;9.216;2023-12-22T10:14:02;6.20;99.90
8408;DHT22;4241;48.452;9.216;2023-12-22T10:16:29;6.70;99.90
8408;DHT22;4241;48.452;9.216;2023-12-22T10:18:57;6.30;99.90
8408;DHT22;4241;48.452;9.216;2023-12-22T10:21:26;6.60;99.90
8408;DHT22;4241;48.452;9.216;2023-12-22T10:23:55;6.40;99.90
8408;DHT22;4241;48.452;9.216;2023-12-22T10:26:21;6.60;99.90
8408;DHT22;4241;48.452;9.216;2023-12-22T10:28:48;6.40;99.90
8408;DHT22;4241;48.452;9.216;2023-12-22T10:31:17;6.20;99.90
8408;DHT22;4241;48.452;9.216;2023-12-22T10:33:44;6.40;99.90
8408;DHT22;4241;48.452;9.216;2023-12-22T10:36:11;6.60;99.90
8408;DHT22;4241;48.452;9.216;2023-12-22T10:38:39;6.20;99.90
8408;DHT22;4241;48.452;9.216;2023-12-22T10:41:08;6.80;99.90
8408;DHT22;4241;48.452;9.216;2023-12-22T10:43:39;6.60;99.90
8408;DHT22;4241;48.452;9.216;2023-12-22T10:46:06;6.40;99.90
8408;DHT22;4241;48.452;9.216;2023-12-22T10:48:33;6.50;99.90
8408;DHT22;4241;48.452;9.216;2023-12-22T10:51:00;6.50;99.90
8408;DHT22;4241;48.452;9.216;2023-12-22T10:53:27;6.70;99.90
8408;DHT22;4241;48.452;9.216;2023-12-22T10:55:56;6.40;99.90
8408;DHT22;4241;48.452;9.216;2023-12-22T10:58:23;6.30;99.90
8408;DHT22;4241;48.452;9.216;2023-12-22T11:00:50;6.40;99.90
8408;DHT22;4241;48.452;9.216;2023-12-22T11:03:19;7.30;99.90
8408;DHT22;4241;48.452;9.216;2023-12-22T11:05:48;6.50;99.90
8408;DHT22;4241;48.452;9.216;2023-12-22T11:08:17;6.60;99.90
8408;DHT22;4241;48.452;9.216;2023-12-22T11:10:51;6.40;99.90
8408;DHT22;4241;48.452;9.216;2023-12-22T11:13:22;6.40;99.90
8408;DHT22;4241;48.452;9.216;2023-12-22T11:15:50;6.80;99.90
8408;DHT22;4241;48.452;9.216;2023-12-22T11:18:19;6.60;99.90
8408;DHT22;4241;48.452;9.216;2023-12-22T11:20:48;6.50;99.90
8408;DHT22;4241;48.452;9.216;2023-12-22T11:23:17;6.90;99.90
8408;DHT22;4241;48.452;9.216;2023-12-22T11:25:48;6.50;99.90
8408;DHT22;4241;48.452;9.216;2023-12-22T11:28:21;6.50;99.90
8408;DHT22;4241;48.452;9.216;2023-12-22T11:30:51;6.60;99.90
8408;DHT22;4241;48.452;9.216;2023-12-22T11:33:18;6.40;99.90
8408;DHT22;4241;48.452;9.216;2023-12-22T11:35:46;6.60;99.90
8408;DHT22;4241;48.452;9.216;2023-12-22T11:38:13;6.60;99.90
8408;DHT22;4241;48.452;9.216;2023-12-22T11:40:40;6.50;99.90
8408;DHT22;4241;48.452;9.216;2023-12-22T11:43:07;6.70;99.90
8408;DHT22;4241;48.452;9.216;2023-12-22T11:45:37;6.40;99.90
8408;DHT22;4241;48.452;9.216;2023-12-22T11:48:08;6.60;99.90
8408;DHT22;4241;48.452;9.216;2023-12-22T11:50:35;6.50;99.90
8408;DHT22;4241;48.452;9.216;2023-12-22T11:53:19;6.40;99.90
8408;DHT22;4241;48.452;9.216;2023-12-22T11:55:56;6.40;99.90
8408;DHT22;4241;48.452;9.216;2023-12-22T11:58:36;6.60;99.90
8408;DHT22;4241;48.452;9.216;2023-12-22T12:01:06;6.70;99.90
8408;DHT22;4241;48.452;9.216;2023-12-22T12:03:36;6.70;99.90
8408;DHT22;4241;48.452;9.216;2023-12-22T12:06:11;6.90;99.90
8408;DHT22;4241;48.452;9.216;2023-12-22T12:08:40;6.30;99.90
8408;DHT22;4241;48.452;9.216;2023-12-22T12:11:08;6.60;99.90
8408;DHT22;4241;48.452;9.216;2023-12-22T12:13:41;6.60;99.90
8408;DHT22;4241;48.452;9.216;2023-12-22T12:16:10;6.60;99.90
8408;DHT22;4241;48.452;9.216;2023-12-22T12:18:38;6.50;99.90
8408;DHT22;4241;48.452;9.216;2023-12-22T12:21:06;6.80;99.90
8408;DHT22;4241;48.452;9.216;2023-12-22T12:23:34;6.50;99.90
8408;DHT22;4241;48.452;9.216;2023-12-22T12:26:01;6.60;99.90
8408;DHT22;4241;48.452;9.216;2023-12-22T12:28:30;6.70;99.90
8408;DHT22;4241;48.452;9.216;2023-12-22T12:30:58;6.90;99.90
8408;DHT22;4241;48.452;9.216;2023-12-22T12:33:28;6.60;99.90
8408;DHT22;4241;48.452;9.216;2023-12-22T12:35:57;7.00;99.90
8408;DHT22;4241;48.452;9.216;2023-12-22T12:38:36;6.80;99.90
8408;DHT22;4241;48.452;9.216;2023-12-22T12:41:04;6.80;99.90
8408;DHT22;4241;48.452;9.216;2023-12-22T12:43:31;6.70;99.90
8408;DHT22;4241;48.452;9.216;2023-12-22T12:46:03;7.10;99.90
8408;DHT22;4241;48.452;9.216;2023-12-22T12:48:32;9.10;99.90
8408;DHT22;4241;48.452;9.216;2023-12-22T12:51:02;7.60;99.90
8408;DHT22;4241;48.452;9.216;2023-12-22T12:53:31;7.30;99.90
8408;DHT22;4241;48.452;9.216;2023-12-22T12:55:58;6.70;99.90
8408;DHT22;4241;48.452;9.216;2023-12-22T12:58:28;6.80;99.90
8408;DHT22;4241;48.452;9.216;2023-12-22T13:01:04;6.90;99.90
8408;DHT22;4241;48.452;9.216;2023-12-22T13:03:33;6.90;99.90
8408;DHT22;4241;48.452;9.216;2023-12-22T13:06:07;7.20;99.90
8408;DHT22;4241;48.452;9.216;2023-12-22T13:08:34;6.90;99.90
8408;DHT22;4241;48.452;9.216;2023-12-22T13:11:01;7.00;99.90
8408;DHT22;4241;48.452;9.216;2023-12-22T13:13:28;7.40;99.90
8408;DHT22;4241;48.452;9.216;2023-12-22T13:15:55;7.20;99.90
8408;DHT22;4241;48.452;9.216;2023-12-22T13:18:22;7.20;99.90
8408;DHT22;4241;48.452;9.216;2023-12-22T13:20:50;7.20;99.90
8408;DHT22;4241;48.452;9.216;2023-12-22T13:23:18;7.30;99.90
8408;DHT22;4241;48.452;9.216;2023-12-22T13:25:45;7.40;99.90
8408;DHT22;4241;48.452;9.216;2023-12-22T13:28:12;7.20;99.90
8408;DHT22;4241;48.452;9.216;2023-12-22T13:30:39;7.20;99.90
8408;DHT22;4241;48.452;9.216;2023-12-22T13:33:07;7.20;99.90
8408;DHT22;4241;48.452;9.216;2023-12-22T13:35:34;7.40;99.90
8408;DHT22;4241;48.452;9.216;2023-12-22T13:38:05;7.40;99.90
8408;DHT22;4241;48.452;9.216;2023-12-22T13:40:32;7.20;99.90
8408;DHT22;4241;48.452;9.216;2023-12-22T13:42:59;7.10;99.90
8408;DHT22;4241;48.452;9.216;2023-12-22T13:45:27;7.20;99.90
8408;DHT22;4241;48.452;9.216;2023-12-22T13:47:54;7.20;99.90
8408;DHT22;4241;48.452;9.216;2023-12-22T13:50:21;7.40;99.90
8408;DHT22;4241;48.452;9.216;2023-12-22T13:52:49;7.80;99.90
8408;DHT22;4241;48.452;9.216;2023-12-22T13:55:19;7.70;99.90
8408;DHT22;4241;48.452;9.216;2023-12-22T13:57:48;7.50;99.90
8408;DHT22;4241;48.452;9.216;2023-12-22T14:00:28;7.50;99.90
8408;DHT22;4241;48.452;9.216;2023-12-22T14:02:56;7.40;99.90
8408;DHT22;4241;48.452;9.216;2023-12-22T14:05:23;7.50;99.90
8408;DHT22;4241;48.452;9.216;2023-12-22T14:07:50;7.30;99.90
8408;DHT22;4241;48.452;9.216;2023-12-22T14:10:19;7.50;99.90
8408;DHT22;4241;48.452;9.216;2023-12-22T14:12:45;8.10;99.90
8408;DHT22;4241;48.452;9.216;2023-12-22T14:15:12;7.70;99.90
8408;DHT22;4241;48.452;9.216;2023-12-22T14:17:39;7.60;99.90
8408;DHT22;4241;48.452;9.216;2023-12-22T14:20:08;7.70;99.90
8408;DHT22;4241;48.452;9.216;2023-12-22T14:22:35;7.40;99.90
8408;DHT22;4241;48.452;9.216;2023-12-22T14:25:03;7.90;99.90
8408;DHT22;4241;48.452;9.216;2023-12-22T14:27:31;7.40;99.90
8408;DHT22;4241;48.452;9.216;2023-12-22T14:29:58;7.60;99.90
8408;DHT22;4241;48.452;9.216;2023-12-22T14:32:25;8.00;99.90
8408;DHT22;4241;48.452;9.216;2023-12-22T14:34:51;8.00;99.90
8408;DHT22;4241;48.452;9.216;2023-12-22T14:37:18;7.80;99.90
8408;DHT22;4241;48.452;9.216;2023-12-22T14:39:45;7.50;99.90
8408;DHT22;4241;48.452;9.216;2023-12-22T14:42:12;7.60;99.90
8408;DHT22;4241;48.452;9.216;2023-12-22T14:44:40;7.50;99.90
8408;DHT22;4241;48.452;9.216;2023-12-22T14:47:07;7.50;99.90
8408;DHT22;4241;48.452;9.216;2023-12-22T14:49:34;7.60;99.90
8408;DHT22;4241;48.452;9.216;2023-12-22T14:52:01;7.90;99.90
8408;DHT22;4241;48.452;9.216;2023-12-22T14:54:28;7.80;99.90
8408;DHT22;4241;48.452;9.216;2023-12-22T14:56:54;7.70;99.90
8408;DHT22;4241;48.452;9.216;2023-12-22T14:59:21;7.60;99.90
8408;DHT22;4241;48.452;9.216;2023-12-22T15:01:49;7.90;99.90
8408;DHT22;4241;48.452;9.216;2023-12-22T15:04:16;8.00;99.90
8408;DHT22;4241;48.452;9.216;2023-12-22T15:09:12;7.40;99.90
8408;DHT22;4241;48.452;9.216;2023-12-22T15:11:43;7.80;99.90
8408;DHT22;4241;48.452;9.216;2023-12-22T15:14:10;7.70;99.90
8408;DHT22;4241;48.452;9.216;2023-12-22T15:16:40;7.60;99.90
8408;DHT22;4241;48.452;9.216;2023-12-22T15:19:11;8.10;99.90
8408;DHT22;4241;48.452;9.216;2023-12-22T15:21:38;7.90;99.90
8408;DHT22;4241;48.452;9.216;2023-12-22T15:24:06;7.80;99.90
8408;DHT22;4241;48.452;9.216;2023-12-22T15:26:33;7.70;99.90
8408;DHT22;4241;48.452;9.216;2023-12-22T15:29:01;7.60;99.90
8408;DHT22;4241;48.452;9.216;2023-12-22T15:31:28;7.60;99.90
8408;DHT22;4241;48.452;9.216;2023-12-22T15:33:55;8.10;99.90
8408;DHT22;4241;48.452;9.216;2023-12-22T15:36:24;7.80;99.90
8408;DHT22;4241;48.452;9.216;2023-12-22T15:38:51;7.60;99.90
8408;DHT22;4241;48.452;9.216;2023-12-22T15:41:18;8.00;99.90
8408;DHT22;4241;48.452;9.216;2023-12-22T15:43:45;8.00;99.90
8408;DHT22;4241;48.452;9.216;2023-12-22T15:46:12;7.70;99.90
8408;DHT22;4241;48.452;9.216;2023-12-22T15:48:39;8.10;99.90
8408;DHT22;4241;48.452;9.216;2023-12-22T15:51:06;8.00;99.90
8408;DHT22;4241;48.452;9.216;2023-12-22T15:53:36;7.60;99.90
8408;DHT22;4241;48.452;9.216;2023-12-22T15:56:04;8.20;99.90
8408;DHT22;4241;48.452;9.216;2023-12-22T15:58:32;7.60;99.90
8408;DHT22;4241;48.452;9.216;2023-12-22T16:00:59;8.00;99.90
8408;DHT22;4241;48.452;9.216;2023-12-22T16:03:26;7.50;99.90
8408;DHT22;4241;48.452;9.216;2023-12-22T16:05:53;8.00;99.90
8408;DHT22;4241;48.452;9.216;2023-12-22T16:08:20;8.50;99.90
8408;DHT22;4241;48.452;9.216;2023-12-22T16:10:48;8.60;99.90
8408;DHT22;4241;48.452;9.216;2023-12-22T16:13:15;7.50;99.90
8408;DHT22;4241;48.452;9.216;2023-12-22T16:15:42;7.60;99.90
8408;DHT22;4241;48.452;9.216;2023-12-22T16:18:09;8.20;99.90
8408;DHT22;4241;48.452;9.216;2023-12-22T16:20:36;7.80;99.90
8408;DHT22;4241;48.452;9.216;2023-12-22T16:23:03;7.80;99.90